Latest Weather Observations for Cape Willoughby

IDS60801

Issued at 10:05 am CST Wednesday 30 July 2014 (issued every 30 minutes, with the page automatically refreshed every 10 minutes)

About weather observations | Map of weather stations | Latest weather observations for SA | Other Formats
Station Details ID: 022803 Name: CAPE WILLOUGHBY Lat: -35.84 Lon: 138.13 Height: 55.0 m
Data from the previous 72 hours. | See also: Recent months at Cape Willoughby
Date/Time
CST
Temp
°C
App
Temp
°C
Dew
Point
Rel
Hum
%
Delta-T
°C
Wind Press
QNH
hPa
Press
MSL
hPa
Rain
since 9 am
mm
Dir
 
Spd
km/h
Gust
km/h
Spd
kts
Gust
kts
30/10:00am 15.6 10.9 13.1 85 1.4 NW 30 43 16 23 1015.4 - 0.0
30/09:56am 15.5 10.4 13.2 86 1.3 NW 32 52 17 28 1015.5 - 0.0
30/09:30am 15.5 10.2 13.0 85 1.4 NW 33 44 18 24 1015.6 1015.7 0.0
30/09:00am 15.0 9.9 13.0 88 1.1 NW 32 44 17 24 1015.6 1015.7 0.4
30/08:30am 14.6 10.3 12.1 85 1.4 NW 26 33 14 18 1015.6 1015.7 0.4
30/08:00am 14.2 10.1 11.4 83 1.5 NW 24 32 13 17 1015.7 - 0.4
30/07:30am 13.9 8.8 10.7 81 1.7 NW 28 35 15 19 1015.8 1015.9 0.4
30/07:00am 14.0 10.4 11.9 87 1.1 NW 22 32 12 17 1015.6 - 0.4
30/06:30am 14.1 8.6 12.0 87 1.1 WNW 32 43 17 23 1015.4 1015.5 0.4
30/06:00am 14.1 9.2 12.5 90 0.9 NW 30 39 16 21 1015.2 1015.3 0.4
30/05:30am 14.0 9.5 12.6 91 0.8 NW 28 41 15 22 1014.7 1014.7 0.4
30/05:00am 14.1 9.9 12.5 90 0.9 NW 26 35 14 19 1014.6 - 0.4
30/04:30am 13.8 9.0 11.7 87 1.1 NW 28 37 15 20 1014.6 1014.6 0.4
30/04:00am 13.7 9.7 11.9 89 1.0 NW 24 33 13 18 1014.7 - 0.4
30/03:30am 13.7 8.7 12.3 91 0.8 NW 30 39 16 21 1015.0 1015.0 0.4
30/03:18am 14.0 9.1 12.4 90 0.9 WNW 30 50 16 27 1015.2 - 0.2
30/03:00am 14.1 9.1 12.3 89 1.0 WNW 30 41 16 22 1015.3 1015.4 0.2
30/02:30am 14.3 10.0 12.2 87 1.1 NW 26 33 14 18 1015.4 1015.5 0.2
30/02:00am 14.3 10.4 12.2 87 1.1 NW 24 32 13 17 1015.4 - 0.2
30/01:30am 14.0 9.8 12.4 90 0.9 NW 26 33 14 18 1015.6 1015.7 0.2
30/01:00am 14.2 10.8 12.6 90 0.9 NW 22 30 12 16 1015.8 - 0.2
30/12:30am 13.8 10.7 12.2 90 0.9 NW 20 26 11 14 1015.8 1015.9 0.2
30/12:00am 13.7 10.5 11.9 89 1.0 NW 20 26 11 14 1016.0 1016.1 0.2
 
Date/Time
CST
Temp
°C
App
Temp
°C
Dew
Point
Rel
Hum
%
Delta-T
°C
Wind Press
QNH
hPa
Press
MSL
hPa
Rain
since 9 am
mm
Dir
 
Spd
km/h
Gust
km/h
Spd
kts
Gust
kts
29/11:30pm 14.0 10.0 11.9 87 1.1 WNW 24 33 13 18 1016.0 1016.1 0.2
29/11:00pm 13.9 9.0 11.4 85 1.3 WNW 28 35 15 19 1016.1 - 0.2
29/10:30pm 14.0 9.9 11.5 85 1.3 WNW 24 35 13 19 1016.1 1016.2 0.2
29/10:00pm 14.1 9.7 11.6 85 1.3 WNW 26 35 14 19 1016.2 - 0.2
29/09:30pm 14.4 8.9 11.7 84 1.5 WNW 32 44 17 24 1015.7 1015.8 0.2
29/09:00pm 14.6 9.8 11.6 82 1.6 WNW 28 35 15 19 1015.4 1015.5 0.2
29/08:30pm 14.5 8.4 10.5 77 2.1 WNW 33 41 18 22 1015.4 1015.5 0.2
29/08:00pm 14.6 8.8 11.4 81 1.7 WNW 33 43 18 23 1015.1 - 0.2
29/07:30pm 14.6 10.8 12.3 86 1.3 WNW 24 32 13 17 1015.2 1015.3 0.2
29/07:00pm 14.7 10.4 12.2 85 1.4 WNW 26 35 14 19 1014.8 - 0.2
29/06:30pm 14.9 10.3 12.4 85 1.4 WNW 28 39 15 21 1014.6 1014.6 0.2
29/06:00pm 14.8 11.6 11.9 83 1.6 NW 20 28 11 15 1014.4 1014.4 0.2
29/05:30pm 15.0 11.1 12.1 83 1.6 WNW 24 35 13 19 1014.0 1014.0 0.2
29/05:00pm 15.0 14.1 12.5 85 1.4 W 9 20 5 11 1014.0 - 0.2
29/04:30pm 15.1 12.2 12.8 86 1.3 WNW 20 32 11 17 1013.7 1013.7 0.2
29/04:00pm 15.5 10.2 12.4 82 1.7 WNW 32 44 17 24 1013.3 - 0.2
29/03:30pm 16.1 10.1 12.1 77 2.2 WNW 35 57 19 31 1013.0 1013.0 0.2
29/03:24pm 16.0 11.0 12.2 78 2.1 WNW 30 50 16 27 1012.9 - 0.2
29/03:00pm 16.3 11.3 12.3 77 2.2 WNW 30 41 16 22 1012.9 1012.9 0.2
29/02:34pm 16.4 9.7 12.2 76 2.3 WNW 39 63 21 34 1012.6 - 0.2
29/02:30pm 16.6 10.0 12.6 77 2.2 WNW 39 56 21 30 1012.8 1012.8 0.2
29/02:13pm 16.5 10.3 12.8 79 2.1 WNW 37 56 20 30 1012.6 - 0.2
29/02:00pm 16.1 9.5 12.5 79 2.0 WNW 39 56 21 30 1012.6 - 0.2
29/01:34pm 16.7 10.9 12.7 77 2.2 WNW 35 54 19 29 1012.5 - 0.2
29/01:30pm 16.6 10.4 12.6 77 2.2 WNW 37 52 20 28 1012.4 1012.4 0.2
29/01:00pm 16.2 8.3 12.6 79 2.0 WNW 46 61 25 33 1012.5 - 0.2
29/12:31pm 16.5 10.3 12.8 79 2.1 NW 37 56 20 30 1012.3 - 0.2
29/12:30pm 16.4 10.3 12.9 80 1.9 NW 37 50 20 27 1012.4 1012.4 0.2
29/12:00pm 15.4 8.4 12.5 83 1.6 NW 41 56 22 30 1013.1 1013.1 0.2
29/11:30am 15.4 10.1 13.1 86 1.3 NW 33 56 18 30 1013.3 1013.3 0.2
29/11:00am 14.8 7.9 12.8 88 1.1 NW 41 61 22 33 1013.1 - 0.2
29/10:41am 15.1 9.4 13.1 88 1.1 NW 35 56 19 30 1013.2 - 0.2
29/10:30am 14.8 8.8 13.3 91 0.8 NW 37 56 20 30 1013.2 1013.2 0.2
29/10:00am 14.9 9.9 13.3 90 0.9 NW 32 43 17 23 1013.2 - 0.0
29/09:30am 14.4 9.8 13.4 94 0.6 NW 30 43 16 23 1013.1 1013.1 0.0
29/09:00am 14.1 9.0 13.0 93 0.6 NW 32 41 17 22 1012.8 1012.8 2.6
29/08:30am 13.9 8.6 13.0 94 0.5 NW 33 46 18 25 1012.8 1012.8 2.6
29/08:00am 13.6 9.2 12.8 95 0.4 NW 28 37 15 20 1012.5 - 2.6
29/07:30am 13.2 9.0 12.4 95 0.4 NW 26 35 14 19 1012.5 1012.5 2.6
29/07:00am 13.0 7.7 12.4 96 0.3 NW 32 41 17 22 1012.4 - 2.6
29/06:30am 13.0 6.3 12.4 96 0.3 NW 39 50 21 27 1012.1 1012.1 1.0
29/06:00am 13.1 6.8 12.3 95 0.4 NNW 37 54 20 29 1011.6 1011.6 0.6
29/05:30am 13.1 6.8 12.3 95 0.4 NW 37 48 20 26 1011.5 1011.5 0.2
29/05:00am 13.1 7.6 12.3 95 0.4 NW 33 46 18 25 1011.8 - 0.2
29/04:30am 13.2 7.2 12.1 93 0.6 NW 35 54 19 29 1012.1 1012.1 0.0
29/04:00am 13.4 7.3 11.8 90 0.9 NNW 35 50 19 27 1011.7 - 0.0
29/03:33am 13.5 7.1 11.9 90 0.9 NNW 37 57 20 31 1011.6 - 0.0
29/03:30am 13.4 7.3 11.8 90 0.9 NNW 35 44 19 24 1011.8 1011.8 0.0
29/03:04am 13.4 6.2 11.8 90 0.9 NNW 41 61 22 33 1011.5 - 0.0
29/03:00am 13.4 5.7 11.6 89 1.0 NNW 43 61 23 33 1011.4 1011.4 0.0
29/02:55am 13.5 6.6 11.7 89 1.0 NNW 39 61 21 33 1011.5 - 0.0
29/02:30am 13.4 5.5 11.5 88 1.0 NNW 44 57 24 31 1011.5 1011.5 0.0
29/02:08am 13.5 5.8 11.4 87 1.1 NNW 43 63 23 34 1011.6 - 0.0
29/02:00am 13.5 5.6 11.4 87 1.1 NNW 44 57 24 31 1011.4 - 0.0
29/01:30am 13.5 6.0 11.0 85 1.3 NNW 41 56 22 30 1012.0 1012.0 0.0
29/01:00am 13.6 5.6 11.0 84 1.4 NNW 44 59 24 32 1012.2 - 0.0
29/12:30am 13.8 4.6 10.8 82 1.6 NW 50 65 27 35 1012.3 1012.3 0.0
29/12:16am 13.8 5.3 10.8 82 1.6 NW 46 70 25 38 1012.6 - 0.0
29/12:00am 13.8 5.9 10.8 82 1.6 NW 43 57 23 31 1012.7 1012.7 0.0
 
Date/Time
CST
Temp
°C
App
Temp
°C
Dew
Point
Rel
Hum
%
Delta-T
°C
Wind Press
QNH
hPa
Press
MSL
hPa
Rain
since 9 am
mm
Dir
 
Spd
km/h
Gust
km/h
Spd
kts
Gust
kts
28/11:30pm 13.8 5.3 10.6 81 1.7 NNW 46 59 25 32 1013.1 1013.1 0.0
28/11:00pm 13.4 6.7 10.9 85 1.3 NNW 37 50 20 27 1013.3 - 0.0
28/10:30pm 13.6 6.9 11.1 85 1.3 NNW 37 48 20 26 1013.7 1013.7 0.0
28/10:00pm 13.7 7.0 11.0 84 1.4 NNW 37 50 20 27 1013.8 - 0.0
28/09:30pm 13.7 7.4 11.0 84 1.4 NNW 35 50 19 27 1013.9 1013.9 0.0
28/09:00pm 13.8 6.7 10.8 82 1.6 NNW 39 50 21 27 1014.0 1014.0 0.0
28/08:30pm 13.5 6.9 11.4 87 1.1 NNW 37 48 20 26 1013.9 1013.9 0.0
28/08:00pm 13.5 6.6 11.7 89 1.0 NNW 39 50 21 27 1013.9 - 0.0
28/07:30pm 13.6 6.4 12.0 90 0.9 NNW 41 54 22 29 1013.8 1013.8 0.0
28/07:01pm 13.7 6.9 12.1 90 0.9 NNW 39 59 21 32 1013.5 - 0.0
28/07:00pm 13.8 7.4 12.0 89 1.0 NNW 37 50 20 27 1013.4 - 0.0
28/06:30pm 13.9 9.1 11.8 87 1.1 NNW 28 35 15 19 1013.8 1013.8 0.0
28/06:00pm 13.7 8.7 11.0 84 1.4 NNW 28 39 15 21 1013.7 1013.7 0.0
28/05:30pm 13.7 8.8 11.4 86 1.2 NNW 28 41 15 22 1013.9 1013.9 0.0
28/05:00pm 14.2 8.5 11.7 85 1.3 NNW 33 44 18 24 1013.6 - 0.0
28/04:30pm 14.8 9.0 11.4 80 1.8 NNW 33 44 18 24 1013.6 1013.6 0.0
28/04:22pm 14.9 8.7 11.3 79 1.9 NNW 35 56 19 30 1013.6 - 0.0
28/04:00pm 15.0 9.0 10.8 76 2.2 NW 33 44 18 24 1013.8 - 0.0
28/03:30pm 15.3 9.6 11.7 79 1.9 NNW 33 41 18 22 1013.6 1013.6 0.0
28/03:00pm 15.4 8.9 11.8 79 2.0 NNW 37 50 20 27 1013.3 1013.3 0.0
28/02:30pm 15.6 9.0 11.2 75 2.4 NW 37 56 20 30 1013.3 1013.3 0.0
28/02:00pm 15.9 8.6 11.5 75 2.4 NNW 41 56 22 30 1013.6 - 0.0
28/01:30pm 15.7 8.8 11.7 77 2.2 NW 39 52 21 28 1014.1 1014.1 0.0
28/01:00pm 15.8 9.4 12.0 78 2.1 NW 37 48 20 26 1014.7 - 0.0
28/12:30pm 15.1 7.8 11.7 80 1.8 NW 41 50 22 27 1015.4 1015.5 0.0
28/12:00pm 15.7 10.1 12.1 79 2.0 NW 33 48 18 26 1015.5 1015.6 0.0
28/11:30am 15.3 9.3 12.2 82 1.7 NW 35 48 19 26 1015.9 1016.0 0.0
28/11:00am 14.7 8.5 12.6 87 1.2 NW 37 52 20 28 1016.3 - 0.0
28/10:30am 14.6 7.6 12.5 87 1.1 NW 41 50 22 27 1016.1 1016.2 0.0
28/10:00am 14.6 8.7 12.5 87 1.1 NW 35 46 19 25 1016.4 - 0.0
28/09:30am 13.9 7.8 11.8 87 1.1 NW 35 44 19 24 1016.6 1016.7 0.0
28/09:00am 13.8 8.5 12.5 92 0.7 NW 32 39 17 21 1016.5 1016.6 0.0
28/08:30am 13.2 8.3 12.4 95 0.4 NW 30 37 16 20 1016.5 1016.6 0.0
28/08:00am 12.9 8.3 12.3 96 0.3 NW 28 35 15 19 1016.4 - 0.0
28/07:30am 12.5 8.2 12.0 97 0.3 NW 26 35 14 19 1016.1 1016.2 0.0
28/07:00am 12.3 9.1 11.8 97 0.3 NW 20 26 11 14 1015.9 - 0.0
28/06:30am 12.1 8.4 11.6 97 0.3 NW 22 26 12 14 1015.7 1015.8 0.0
28/06:00am 11.6 8.3 11.0 96 0.3 NW 19 22 10 12 1015.7 1015.8 0.0
28/05:30am 11.6 8.7 11.0 96 0.3 NW 17 19 9 10 1015.8 1015.9 0.0
28/05:00am 11.7 8.8 11.1 96 0.3 NW 17 19 9 10 1015.9 - 0.0
28/04:30am 11.9 9.5 11.3 96 0.3 NW 15 17 8 9 1016.0 1016.1 0.0
28/04:00am 12.1 9.3 11.3 95 0.4 NW 17 20 9 11 1016.3 - 0.0
28/03:30am 12.0 8.6 11.1 94 0.5 NW 20 24 11 13 1016.0 1016.1 0.0
28/03:00am 12.2 8.4 11.3 94 0.5 NW 22 24 12 13 1016.0 1016.1 0.0
28/02:30am 11.8 8.2 10.5 92 0.7 NW 20 24 11 13 1016.0 1016.1 0.0
28/02:00am 12.1 8.5 10.7 91 0.7 NW 20 24 11 13 1016.1 - 0.0
28/01:30am 12.3 8.7 10.5 89 0.9 NW 20 24 11 13 1016.3 1016.4 0.0
28/01:00am 12.4 8.4 10.5 88 1.0 NW 22 28 12 15 1016.6 - 0.0
28/12:30am 12.5 8.4 10.2 86 1.2 NW 22 28 12 15 1016.8 1016.9 0.0
28/12:00am 12.4 7.9 10.1 86 1.2 NW 24 28 13 15 1016.8 1016.9 0.0
 
Date/Time
CST
Temp
°C
App
Temp
°C
Dew
Point
Rel
Hum
%
Delta-T
°C
Wind Press
QNH
hPa
Press
MSL
hPa
Rain
since 9 am
mm
Dir
 
Spd
km/h
Gust
km/h
Spd
kts
Gust
kts
27/11:30pm 12.5 8.0 10.0 85 1.3 NW 24 28 13 15 1016.8 1016.9 0.0
27/11:00pm 12.7 7.5 10.2 85 1.3 NW 28 32 15 17 1016.9 - 0.0
27/10:30pm 12.9 7.7 10.1 83 1.4 NW 28 30 15 16 1017.3 1017.4 0.0
27/10:00pm 13.3 7.8 10.5 83 1.5 NNW 30 37 16 20 1017.3 - 0.0
27/09:30pm 13.7 7.7 10.7 82 1.6 NNW 33 43 18 23 1017.2 1017.3 0.0
27/09:00pm 13.7 7.0 11.0 84 1.4 NNW 37 46 20 25 1017.2 1017.3 0.0
27/08:30pm 13.9 6.7 10.7 81 1.7 NNW 39 50 21 27 1017.1 1017.2 0.0
27/08:11pm 14.2 7.0 10.6 79 1.9 NNW 39 57 21 31 1017.0 - 0.0
27/08:00pm 14.3 6.3 10.3 77 2.1 NNW 43 57 23 31 1016.9 - 0.0
27/07:30pm 14.6 6.3 10.0 74 2.4 NNW 44 61 24 33 1016.9 1017.0 0.0
27/07:00pm 14.7 6.0 9.9 73 2.5 NNW 46 57 25 31 1016.9 - 0.0
27/06:30pm 14.1 6.8 10.3 78 2.0 NNW 39 50 21 27 1016.8 1016.9 0.0
27/06:00pm 14.2 6.0 10.4 78 2.0 NNW 44 54 24 29 1016.8 1016.9 0.0
27/05:30pm 14.0 6.0 10.6 80 1.8 NNW 43 56 23 30 1017.1 1017.2 0.0
27/05:00pm 13.9 6.4 10.9 82 1.6 NNW 41 57 22 31 1016.9 - 0.0
27/04:30pm 13.8 6.3 11.0 83 1.5 NNW 41 54 22 29 1017.1 1017.2 0.0
27/04:00pm 13.9 6.4 10.9 82 1.6 NNW 41 52 22 28 1017.1 - 0.0
27/03:30pm 14.1 6.7 11.3 83 1.5 NNW 41 52 22 28 1017.0 1017.1 0.0
27/03:00pm 14.1 6.0 10.7 80 1.8 NNW 44 57 24 31 1016.9 1017.0 0.0
27/02:30pm 13.9 4.5 10.3 79 1.9 NNW 50 63 27 34 1016.8 1016.9 0.0
27/02:00pm 13.6 4.4 10.8 83 1.5 NNW 50 59 27 32 1017.0 - 0.0
27/01:30pm 13.7 2.6 10.3 80 1.8 NNW 59 69 32 37 1017.0 1017.1 0.0
27/01:00pm 13.7 3.6 10.3 80 1.8 NNW 54 74 29 40 1017.9 - 0.0
27/12:59pm 13.7 3.6 10.3 80 1.8 NNW 54 74 29 40 1018.0 - 0.0
27/12:30pm 13.6 3.8 10.0 79 1.9 NNW 52 69 28 37 1018.1 1018.2 0.0
27/12:12pm 13.8 6.1 10.0 78 2.0 NNW 41 61 22 33 1019.0 - 0.0
27/12:00pm 14.0 5.7 10.0 77 2.1 NNW 44 54 24 29 1019.3 1019.4 0.0
27/11:30am 13.7 5.1 10.3 80 1.8 NNW 46 59 25 32 1019.8 1019.9 0.0
27/11:00am 13.4 5.3 10.2 81 1.7 N 43 52 23 28 1020.8 - 0.0
27/10:30am 13.7 5.5 10.5 81 1.7 NNW 44 54 24 29 1021.0 1021.0 0.0

Other Formats:

Comma delimited format used in spreadsheet applications
http://www.bom.gov.au/fwo/IDS60801/IDS60801.94822.axf

JavaScript Object Notation format (JSON) in row-major order
http://www.bom.gov.au/fwo/IDS60801/IDS60801.94822.json